Tizayuca Airport

Jump to: basic info | weather | runways | comments

Related pages: nearby airports | nearby navaids | notams | map

Basic information (top)

Codes: MM28
Location: lon 19.874001, lat -98.943604, elev 7,600 ft / 2,316 m msl
Status: small_airport

Weather (top)

Current conditions for Licenciado Benito Juarez International Airport 27nm (50km) SSW (rec'd 2014/09/02 20:53Z):

MMMX 022053Z 13010KT 7SM SCT020CB BKN080 BKN200 23/11 A3016 NOSIG RMK SLP042 57032 963 8/362 HZY

Airport forecast for Licenciado Benito Juarez International Airport 27nm (50km) SSW (rec'd 2014/09/01 18:56Z):

TAF MMMX 011656Z 0118/0224 09006KT 6SM HZ SCT025 BKN220 TX25/0122Z TN14/0213Z 
     FM012100 07012KT P6SM VC SH BKN025CB BKN080 
      TEMPO 0122/0202 5SM TSRA 
     FM020300 00000KT P6SM SCT025 BKN080 
     FM021200 07005KT 5SM HZ BKN020 BKN080 
     FM022000 24012KT P6SM VC SH BKN025CB BKN080 PROB40 0221/0224 5SM TSRA

Runways (top)

01/19: 4,235 x 80 ft (1,291 x 24 m) — paved — not lighted

Latest comments (top)

No comments yet for Tizayuca Airport

More... (top)

See also NOTAMs and nearby airports and navaids, or visit the Tizayuca Airport page at the main OurAirports website..